createdAt,value
2023-02-15T00:01:58.772Z,1.10
2023-02-15T00:04:46.370Z,1.00
2023-02-15T00:07:15.395Z,1.10
2023-02-15T00:09:42.200Z,1.20
2023-02-15T00:12:10.762Z,1.10
2023-02-15T00:14:37.711Z,1.10
2023-02-15T00:17:04.732Z,1.20
2023-02-15T00:19:31.553Z,1.20
2023-02-15T00:21:58.319Z,1.20
2023-02-15T00:24:33.816Z,1.30
2023-02-15T00:27:00.559Z,1.40
2023-02-15T00:29:27.449Z,1.40
2023-02-15T00:31:54.434Z,1.40
2023-02-15T00:34:26.676Z,1.40
2023-02-15T00:36:53.876Z,1.40
2023-02-15T00:39:20.717Z,1.40
2023-02-15T00:41:48.053Z,1.30
2023-02-15T00:44:15.983Z,1.30
2023-02-15T00:46:42.767Z,1.20
2023-02-15T00:49:09.626Z,1.10
2023-02-15T00:51:36.274Z,1.00
2023-02-15T00:54:02.996Z,1.00
2023-02-15T00:56:29.711Z,0.90
2023-02-15T00:58:56.483Z,0.90
2023-02-15T01:01:24.475Z,0.80
2023-02-15T01:03:51.190Z,0.80
2023-02-15T01:06:20.997Z,0.80
2023-02-15T01:08:47.720Z,0.80
2023-02-15T01:11:22.969Z,0.70
2023-02-15T01:13:55.152Z,0.70
2023-02-15T01:16:23.258Z,0.70
2023-02-15T01:18:50.359Z,0.70
2023-02-15T01:21:20.076Z,0.60
2023-02-15T01:23:47.693Z,0.60
2023-02-15T01:26:15.382Z,0.60
2023-02-15T01:28:58.207Z,0.50
2023-02-15T01:31:25.001Z,0.50
2023-02-15T01:33:51.776Z,0.50
2023-02-15T01:36:18.605Z,0.50
2023-02-15T01:38:45.624Z,0.50
2023-02-15T01:41:24.015Z,0.40
2023-02-15T01:44:02.312Z,0.40
2023-02-15T01:46:37.902Z,0.40
2023-02-15T01:49:11.924Z,0.30
2023-02-15T01:51:40.833Z,0.30
2023-02-15T01:54:14.747Z,0.30
2023-02-15T01:56:42.816Z,0.30
2023-02-15T01:59:14.942Z,0.30
2023-02-15T02:02:04.251Z,0.30
2023-02-15T02:04:36.197Z,0.20
2023-02-15T02:07:19.428Z,0.20
2023-02-15T02:09:46.790Z,0.20
2023-02-15T02:12:13.884Z,0.10
2023-02-15T02:14:41.922Z,0.10
2023-02-15T02:17:18.891Z,0.10
2023-02-15T02:20:05.737Z,0.10
2023-02-15T02:22:35.135Z,0.00
2023-02-15T02:25:43.302Z,0.00
2023-02-15T02:28:47.458Z,0.00
2023-02-15T02:31:49.417Z,-0.10
2023-02-15T02:34:26.752Z,-0.10
2023-02-15T02:37:37.465Z,-0.10
2023-02-15T02:40:09.902Z,-0.10
2023-02-15T02:42:59.433Z,-0.20
2023-02-15T02:45:48.184Z,-0.20
2023-02-15T02:48:19.775Z,-0.20
2023-02-15T02:50:46.439Z,-0.20
2023-02-15T02:53:13.179Z,-0.20
2023-02-15T02:56:31.212Z,-0.20
2023-02-15T02:59:12.897Z,-0.20
2023-02-15T03:02:13.997Z,-0.20
2023-02-15T03:04:46.591Z,-0.20
2023-02-15T03:07:28.794Z,-0.20
2023-02-15T03:09:59.183Z,-0.20
2023-02-15T03:12:30.879Z,-0.20
2023-02-15T03:15:04.840Z,-0.20
2023-02-15T03:17:34.914Z,-0.20
2023-02-15T03:20:27.709Z,-0.20
2023-02-15T03:22:57.847Z,-0.20
2023-02-15T03:25:47.409Z,-0.20
2023-02-15T03:28:23.396Z,-0.20
2023-02-15T03:30:54.453Z,-0.20
2023-02-15T03:33:23.196Z,-0.10
2023-02-15T03:35:51.548Z,-0.10
2023-02-15T03:38:22.925Z,-0.10
2023-02-15T03:41:08.711Z,-0.10
2023-02-15T03:43:55.376Z,0.00
2023-02-15T03:47:08.104Z,0.00
2023-02-15T03:49:45.896Z,-0.10
2023-02-15T03:52:13.970Z,-0.10
2023-02-15T03:54:47.510Z,-0.10
2023-02-15T03:57:46.314Z,-0.10
2023-02-15T04:00:43.422Z,-0.10
2023-02-15T04:03:10.251Z,-0.10
2023-02-15T04:05:36.971Z,-0.10
2023-02-15T04:08:04.013Z,0.00
2023-02-15T04:10:55.239Z,0.00
2023-02-15T04:13:31.847Z,0.10
2023-02-15T04:16:05.581Z,0.20
2023-02-15T04:19:02.382Z,0.20
2023-02-15T04:21:49.862Z,0.20
2023-02-15T04:24:36.068Z,0.30
2023-02-15T04:27:04.336Z,0.30
2023-02-15T04:29:32.197Z,0.30
2023-02-15T04:32:00.604Z,0.40
2023-02-15T04:34:27.551Z,0.50
2023-02-15T04:36:54.339Z,0.40
2023-02-15T04:39:21.309Z,0.30
2023-02-15T04:41:48.833Z,0.20
2023-02-15T04:44:15.772Z,0.20
2023-02-15T04:46:42.677Z,0.20
2023-02-15T04:49:10.381Z,0.10
2023-02-15T04:51:37.477Z,0.10
2023-02-15T04:54:04.384Z,0.00
2023-02-15T04:56:32.526Z,-0.10
2023-02-15T04:58:59.298Z,-0.10
2023-02-15T05:01:26.156Z,-0.10
2023-02-15T05:03:52.994Z,-0.20
2023-02-15T05:06:20.005Z,-0.20
2023-02-15T05:08:46.730Z,-0.20
2023-02-15T05:11:13.530Z,-0.30
2023-02-15T05:13:40.960Z,-0.30
2023-02-15T05:16:07.714Z,-0.30
2023-02-15T05:18:34.495Z,-0.30
2023-02-15T05:21:01.367Z,-0.30
2023-02-15T05:23:28.135Z,-0.30
2023-02-15T05:26:13.751Z,-0.30
2023-02-15T05:28:40.810Z,-0.30
2023-02-15T05:31:13.343Z,-0.30
2023-02-15T05:33:40.635Z,-0.30
2023-02-15T05:36:13.199Z,-0.30
2023-02-15T05:38:40.192Z,-0.30
2023-02-15T05:41:09.779Z,-0.40
2023-02-15T05:43:37.029Z,-0.40
2023-02-15T05:46:04.977Z,-0.40
2023-02-15T05:48:40.951Z,-0.40
2023-02-15T05:51:14.172Z,-0.30
2023-02-15T05:53:41.781Z,-0.30
2023-02-15T05:56:10.592Z,-0.20
2023-02-15T05:58:39.969Z,-0.30
2023-02-15T06:01:27.788Z,-0.20
2023-02-15T06:03:55.203Z,-0.20
2023-02-15T06:06:22.047Z,-0.20
2023-02-15T06:08:57.729Z,-0.20
2023-02-15T06:11:24.500Z,-0.20
2023-02-15T06:13:51.136Z,-0.20
2023-02-15T06:16:51.474Z,-0.20
2023-02-15T06:19:18.245Z,-0.30
2023-02-15T06:21:45.501Z,-0.30
2023-02-15T06:24:12.285Z,-0.30
2023-02-15T06:26:39.033Z,-0.30
2023-02-15T06:29:17.146Z,-0.40
2023-02-15T06:31:43.976Z,-0.30
2023-02-15T06:34:10.742Z,-0.40
2023-02-15T06:36:37.728Z,-0.30
2023-02-15T06:39:05.114Z,-0.30
2023-02-15T06:41:42.409Z,-0.30
2023-02-15T06:44:09.042Z,-0.30
2023-02-15T06:46:35.661Z,-0.30
2023-02-15T06:49:07.929Z,-0.30
2023-02-15T06:51:35.101Z,-0.30
2023-02-15T06:54:01.782Z,-0.30
2023-02-15T06:56:36.022Z,-0.20
2023-02-15T06:59:05.098Z,-0.20
2023-02-15T07:01:31.866Z,-0.10
2023-02-15T07:03:58.489Z,-0.10
2023-02-15T07:06:25.199Z,0.00
2023-02-15T07:08:51.871Z,0.00
2023-02-15T07:11:37.170Z,0.10
2023-02-15T07:14:03.796Z,0.30
2023-02-15T07:16:35.545Z,0.40
2023-02-15T07:19:02.759Z,0.60
2023-02-15T07:21:29.385Z,0.70
2023-02-15T07:23:59.501Z,0.70
2023-02-15T07:26:26.561Z,0.80
2023-02-15T07:29:00.812Z,0.90
2023-02-15T07:31:27.529Z,1.10
2023-02-15T07:33:54.375Z,1.20
2023-02-15T07:36:21.071Z,1.30
2023-02-15T07:38:47.963Z,1.40
2023-02-15T07:41:43.977Z,1.50
2023-02-15T07:44:14.741Z,1.60
2023-02-15T07:46:41.726Z,1.70
2023-02-15T07:49:24.667Z,1.80
2023-02-15T07:51:51.359Z,1.90
2023-02-15T07:54:18.084Z,2.00
2023-02-15T07:56:44.920Z,2.00
2023-02-15T07:59:11.696Z,2.10
2023-02-15T08:01:48.248Z,2.00
2023-02-15T08:04:14.883Z,2.00
2023-02-15T08:06:41.598Z,1.90
2023-02-15T08:09:14.905Z,1.70
2023-02-15T08:11:47.009Z,1.60
2023-02-15T08:14:19.094Z,1.60
2023-02-15T08:16:47.209Z,1.70
2023-02-15T08:19:27.540Z,1.60
2023-02-15T08:22:03.309Z,1.60
2023-02-15T08:24:34.549Z,1.60
2023-02-15T08:27:06.002Z,1.80
2023-02-15T08:29:34.694Z,1.90
2023-02-15T08:32:10.080Z,2.00
2023-02-15T08:34:39.563Z,2.20
2023-02-15T08:37:14.993Z,2.40
2023-02-15T08:39:50.573Z,2.60
2023-02-15T08:42:17.368Z,2.70
2023-02-15T08:44:44.070Z,2.90
2023-02-15T08:47:25.665Z,3.00
2023-02-15T08:49:52.429Z,3.10
2023-02-15T08:52:19.123Z,3.30
2023-02-15T08:55:08.548Z,3.50
2023-02-15T08:57:45.772Z,3.30
2023-02-15T09:00:12.886Z,3.30
2023-02-15T09:02:39.558Z,3.30
2023-02-15T09:05:11.303Z,3.30
2023-02-15T09:07:37.972Z,3.40
2023-02-15T09:10:05.040Z,3.40
2023-02-15T09:12:31.781Z,3.40
2023-02-15T09:14:58.605Z,3.50
2023-02-15T09:17:27.701Z,3.70
2023-02-15T09:20:23.073Z,3.80
2023-02-15T09:22:49.771Z,3.90
2023-02-15T09:25:16.529Z,4.00
2023-02-15T09:27:55.986Z,3.90
2023-02-15T09:30:22.830Z,4.00
2023-02-15T09:32:49.561Z,4.10
2023-02-15T09:35:17.643Z,4.20
2023-02-15T09:38:00.555Z,4.40
2023-02-15T09:40:46.701Z,4.50
2023-02-15T09:43:48.260Z,4.70
2023-02-15T09:46:45.077Z,4.90
2023-02-15T09:49:20.999Z,4.90
2023-02-15T09:52:08.101Z,5.00
2023-02-15T09:55:08.526Z,5.10
2023-02-15T09:58:14.728Z,5.20
2023-02-15T10:00:59.863Z,5.40
2023-02-15T10:04:04.219Z,5.50
2023-02-15T10:06:43.102Z,5.70
2023-02-15T10:09:34.628Z,5.90
2023-02-15T10:12:19.636Z,6.00
2023-02-15T10:14:52.744Z,6.30
2023-02-15T10:17:50.079Z,6.50
2023-02-15T10:20:53.247Z,6.60
2023-02-15T10:23:59.248Z,6.90
2023-02-15T10:26:32.382Z,7.00
2023-02-15T10:29:27.944Z,7.10
2023-02-15T10:32:27.265Z,7.20
2023-02-15T10:35:23.567Z,7.10
2023-02-15T10:38:11.343Z,7.30
2023-02-15T10:40:40.862Z,7.40
2023-02-15T10:43:26.743Z,7.50
2023-02-15T10:45:53.544Z,7.60
2023-02-15T10:48:58.553Z,7.60
2023-02-15T10:51:28.226Z,7.70
2023-02-15T10:54:27.274Z,7.90
2023-02-15T10:57:02.971Z,7.80
2023-02-15T11:00:01.117Z,7.70
2023-02-15T11:02:59.203Z,7.70
2023-02-15T11:05:46.472Z,7.80
2023-02-15T11:08:18.738Z,7.90
2023-02-15T11:10:59.324Z,8.00
2023-02-15T11:13:29.371Z,8.10
2023-02-15T11:16:05.560Z,8.20
2023-02-15T11:18:35.284Z,8.40
2023-02-15T11:21:20.763Z,8.50
2023-02-15T11:23:48.365Z,8.50
2023-02-15T11:26:40.244Z,8.10
2023-02-15T11:29:16.809Z,7.80
2023-02-15T11:31:56.062Z,7.60
2023-02-15T11:34:41.180Z,7.40
2023-02-15T11:37:13.995Z,7.30
2023-02-15T11:39:41.828Z,7.10
2023-02-15T11:42:21.470Z,7.10
2023-02-15T11:45:23.053Z,7.20
2023-02-15T11:47:49.819Z,7.40
2023-02-15T11:50:22.960Z,7.50
2023-02-15T11:52:55.736Z,7.70
2023-02-15T11:55:24.955Z,7.90
2023-02-15T11:58:30.759Z,8.00
2023-02-15T12:01:25.053Z,8.00
2023-02-15T12:03:54.840Z,8.10
2023-02-15T12:06:24.585Z,8.20
2023-02-15T12:09:26.480Z,8.40
2023-02-15T12:11:53.290Z,8.50
2023-02-15T12:14:21.182Z,8.80
2023-02-15T12:16:50.857Z,9.00
2023-02-15T12:19:41.432Z,9.20
2023-02-15T12:22:27.150Z,9.30
2023-02-15T12:25:20.285Z,9.50
2023-02-15T12:27:48.104Z,9.60
2023-02-15T12:30:23.393Z,9.70
2023-02-15T12:32:57.457Z,9.80
2023-02-15T12:35:31.680Z,9.80
2023-02-15T12:38:03.298Z,9.80
2023-02-15T12:40:32.086Z,9.80
2023-02-15T12:42:59.265Z,9.80
2023-02-15T12:45:34.640Z,9.70
2023-02-15T12:48:13.268Z,9.70
2023-02-15T12:50:47.401Z,9.80
2023-02-15T12:53:16.272Z,9.80
2023-02-15T12:56:00.913Z,9.80
2023-02-15T12:58:31.224Z,9.80
2023-02-15T13:01:10.083Z,10.00
2023-02-15T13:03:45.687Z,10.00
2023-02-15T13:06:24.350Z,10.10
2023-02-15T13:08:53.643Z,10.10
2023-02-15T13:11:35.144Z,10.20
2023-02-15T13:14:16.432Z,10.30
2023-02-15T13:16:46.116Z,10.30
2023-02-15T13:19:24.259Z,10.40
2023-02-15T13:21:54.132Z,10.50
2023-02-15T13:24:46.786Z,10.40
2023-02-15T13:27:16.344Z,10.50
2023-02-15T13:29:50.804Z,10.60
2023-02-15T13:32:26.543Z,10.60
2023-02-15T13:34:57.956Z,10.60
2023-02-15T13:37:49.091Z,10.60
2023-02-15T13:40:23.660Z,10.60
2023-02-15T13:43:36.211Z,10.70
2023-02-15T13:46:36.973Z,10.80
2023-02-15T13:49:40.618Z,10.80
2023-02-15T13:52:27.181Z,10.80
2023-02-15T13:54:56.717Z,10.80
2023-02-15T13:58:08.033Z,10.70
2023-02-15T14:00:45.834Z,10.60
2023-02-15T14:03:34.187Z,10.40
2023-02-15T14:06:03.821Z,10.30
2023-02-15T14:08:41.966Z,10.10
2023-02-15T14:11:28.232Z,10.10
2023-02-15T14:13:57.666Z,10.10
2023-02-15T14:16:37.088Z,10.00
2023-02-15T14:19:28.569Z,10.10
2023-02-15T14:22:04.279Z,10.10
2023-02-15T14:24:45.512Z,10.00
2023-02-15T14:27:37.808Z,10.00
2023-02-15T14:30:40.693Z,10.00
2023-02-15T14:33:35.964Z,10.00
2023-02-15T14:36:08.884Z,10.00
2023-02-15T14:39:06.149Z,9.80
2023-02-15T14:41:54.815Z,9.80
2023-02-15T14:44:48.570Z,9.80
2023-02-15T14:47:48.596Z,9.70
2023-02-15T14:50:38.275Z,9.60
2023-02-15T14:53:33.182Z,9.60
2023-02-15T14:56:11.961Z,9.60
2023-02-15T14:58:55.389Z,9.50
2023-02-15T15:01:34.430Z,9.40
2023-02-15T15:04:05.461Z,9.30
2023-02-15T15:06:38.213Z,9.30
2023-02-15T15:09:47.045Z,9.20
2023-02-15T15:12:23.180Z,9.20
2023-02-15T15:14:51.397Z,9.10
2023-02-15T15:17:42.645Z,9.00
2023-02-15T15:20:38.181Z,8.90
2023-02-15T15:23:17.003Z,8.90
2023-02-15T15:26:21.764Z,8.80
2023-02-15T15:28:48.441Z,8.70
2023-02-15T15:31:17.995Z,8.60
2023-02-15T15:34:15.558Z,8.60
2023-02-15T15:37:03.279Z,8.50
2023-02-15T15:39:44.949Z,8.50
2023-02-15T15:42:24.303Z,8.50
2023-02-15T15:45:02.957Z,8.40
2023-02-15T15:47:51.267Z,8.40
2023-02-15T15:50:21.219Z,8.40
2023-02-15T15:52:59.723Z,8.30
2023-02-15T15:55:29.986Z,8.30
2023-02-15T15:58:01.556Z,8.20
2023-02-15T16:00:36.265Z,8.20
2023-02-15T16:03:03.429Z,8.10
2023-02-15T16:05:37.146Z,8.00
2023-02-15T16:08:04.009Z,7.90
2023-02-15T16:10:33.564Z,7.80
2023-02-15T16:13:01.336Z,7.70
2023-02-15T16:15:45.421Z,7.60
2023-02-15T16:18:19.885Z,7.40
2023-02-15T16:20:55.326Z,7.30
2023-02-15T16:23:31.109Z,7.20
2023-02-15T16:26:16.288Z,7.00
2023-02-15T16:28:51.106Z,6.80
2023-02-15T16:31:18.618Z,6.70
2023-02-15T16:33:46.254Z,6.60
2023-02-15T16:36:27.808Z,6.50
2023-02-15T16:38:57.599Z,6.40
2023-02-15T16:41:29.335Z,6.20
2023-02-15T16:44:00.995Z,6.10
2023-02-15T16:46:40.759Z,6.00
2023-02-15T16:49:48.608Z,5.90
2023-02-15T16:52:33.529Z,5.70
2023-02-15T16:55:04.073Z,5.60
2023-02-15T16:57:39.028Z,5.50
2023-02-15T17:00:17.798Z,5.40
2023-02-15T17:03:14.508Z,5.30
2023-02-15T17:05:45.795Z,5.20
2023-02-15T17:08:20.640Z,5.20
2023-02-15T17:11:05.360Z,5.10
2023-02-15T17:13:32.418Z,5.00
2023-02-15T17:16:02.524Z,4.90
2023-02-15T17:18:37.773Z,4.90
2023-02-15T17:21:19.926Z,4.90
2023-02-15T17:23:48.836Z,4.80
2023-02-15T17:26:31.280Z,4.80
2023-02-15T17:28:59.776Z,4.80
2023-02-15T17:31:32.874Z,4.70
2023-02-15T17:34:03.533Z,4.70
2023-02-15T17:36:32.351Z,4.70
2023-02-15T17:38:59.080Z,4.70
2023-02-15T17:41:26.429Z,4.70
2023-02-15T17:43:53.127Z,4.70
2023-02-15T17:46:23.120Z,4.60
2023-02-15T17:48:54.914Z,4.60
2023-02-15T17:51:22.328Z,4.60
2023-02-15T17:54:08.109Z,4.60
2023-02-15T17:56:36.075Z,4.60
2023-02-15T17:59:07.446Z,4.50
2023-02-15T18:01:55.308Z,4.50
2023-02-15T18:04:41.574Z,4.40
2023-02-15T18:07:29.084Z,4.40
2023-02-15T18:10:14.149Z,4.50
2023-02-15T18:12:41.347Z,4.40
2023-02-15T18:15:12.211Z,4.40
2023-02-15T18:17:43.840Z,4.40
2023-02-15T18:20:18.499Z,4.40
2023-02-15T18:22:49.144Z,4.50
2023-02-15T18:25:17.439Z,4.50
2023-02-15T18:27:44.572Z,4.50
2023-02-15T18:30:16.849Z,4.40
2023-02-15T18:32:48.787Z,4.40
2023-02-15T18:35:17.633Z,4.30
2023-02-15T18:37:44.669Z,4.30
2023-02-15T18:40:20.698Z,4.30
2023-02-15T18:42:47.975Z,4.30
2023-02-15T18:45:28.460Z,4.30
2023-02-15T18:47:55.682Z,4.40
2023-02-15T18:50:24.613Z,4.40
2023-02-15T18:52:51.789Z,4.40
2023-02-15T18:55:34.972Z,4.30
2023-02-15T18:58:02.150Z,4.40
2023-02-15T19:00:32.409Z,4.40
2023-02-15T19:03:13.254Z,4.40
2023-02-15T19:05:42.397Z,4.40
2023-02-15T19:08:24.516Z,4.40
2023-02-15T19:10:51.705Z,4.40
2023-02-15T19:13:18.482Z,4.40
2023-02-15T19:15:45.257Z,4.30
2023-02-15T19:18:12.074Z,4.40
2023-02-15T19:20:41.596Z,4.40
2023-02-15T19:23:15.334Z,4.40
2023-02-15T19:25:42.745Z,4.40
2023-02-15T19:28:17.003Z,4.50
2023-02-15T19:30:44.165Z,4.50
2023-02-15T19:33:22.433Z,4.50
2023-02-15T19:35:54.121Z,4.60
2023-02-15T19:38:23.488Z,4.70
2023-02-15T19:40:50.260Z,4.70
2023-02-15T19:43:26.389Z,4.60
2023-02-15T19:45:53.665Z,4.60
2023-02-15T19:48:20.368Z,4.60
2023-02-15T19:50:47.956Z,4.70
2023-02-15T19:53:23.871Z,4.60
2023-02-15T19:55:51.087Z,4.70
2023-02-15T19:58:21.575Z,4.60
2023-02-15T20:00:50.868Z,4.60
2023-02-15T20:03:17.884Z,4.60
2023-02-15T20:05:45.121Z,4.70
2023-02-15T20:08:18.551Z,4.70
2023-02-15T20:10:45.959Z,4.70
2023-02-15T20:13:17.469Z,4.70
2023-02-15T20:15:44.744Z,4.70
2023-02-15T20:18:12.227Z,4.70
2023-02-15T20:20:40.608Z,4.70
2023-02-15T20:23:31.325Z,4.70
2023-02-15T20:26:02.268Z,4.70
2023-02-15T20:28:31.648Z,4.70
2023-02-15T20:30:59.152Z,4.70
2023-02-15T20:33:25.987Z,4.70
2023-02-15T20:35:52.852Z,4.70
2023-02-15T20:38:26.376Z,4.70
2023-02-15T20:41:12.757Z,4.80
2023-02-15T20:43:40.058Z,4.80
2023-02-15T20:46:07.569Z,4.80
2023-02-15T20:48:34.564Z,4.90
2023-02-15T20:51:02.147Z,4.80
2023-02-15T20:53:29.687Z,4.90
2023-02-15T20:55:56.702Z,4.90
2023-02-15T20:58:34.426Z,4.90
2023-02-15T21:01:02.157Z,4.90
2023-02-15T21:03:32.265Z,4.90
2023-02-15T21:05:59.172Z,5.00
2023-02-15T21:08:26.349Z,4.90
2023-02-15T21:10:53.980Z,4.90
2023-02-15T21:13:25.126Z,4.90
2023-02-15T21:15:54.232Z,4.90
2023-02-15T21:18:24.789Z,4.80
2023-02-15T21:20:58.324Z,4.80
2023-02-15T21:23:30.020Z,4.80
2023-02-15T21:25:57.290Z,4.80
2023-02-15T21:28:26.603Z,4.70
2023-02-15T21:30:54.141Z,4.70
2023-02-15T21:33:20.943Z,4.70
2023-02-15T21:35:50.258Z,4.70
2023-02-15T21:38:21.413Z,4.70
2023-02-15T21:40:48.988Z,4.80
2023-02-15T21:43:37.913Z,4.80
2023-02-15T21:46:37.515Z,4.90
2023-02-15T21:49:07.158Z,5.10
2023-02-15T21:51:53.142Z,5.10
2023-02-15T21:54:21.073Z,5.10
2023-02-15T21:56:50.970Z,5.10
2023-02-15T21:59:18.446Z,5.10
2023-02-15T22:01:48.792Z,5.10
2023-02-15T22:04:23.140Z,5.10
2023-02-15T22:06:49.985Z,5.20
2023-02-15T22:09:25.529Z,5.20
2023-02-15T22:11:53.209Z,5.30
2023-02-15T22:14:33.103Z,5.30
2023-02-15T22:16:59.876Z,5.30
2023-02-15T22:19:27.502Z,5.30
2023-02-15T22:21:54.243Z,5.40
2023-02-15T22:24:21.101Z,5.40
2023-02-15T22:26:47.848Z,5.50
2023-02-15T22:29:17.563Z,5.50
2023-02-15T22:31:44.783Z,5.50
2023-02-15T22:34:27.825Z,5.50
2023-02-15T22:36:55.634Z,5.50
2023-02-15T22:39:22.607Z,5.50
2023-02-15T22:41:49.438Z,5.50
2023-02-15T22:44:26.289Z,5.50
2023-02-15T22:46:53.135Z,5.50
2023-02-15T22:49:19.936Z,5.50
2023-02-15T22:51:50.860Z,5.50
2023-02-15T22:54:19.046Z,5.40
2023-02-15T22:56:47.922Z,5.40
2023-02-15T22:59:28.661Z,5.30
2023-02-15T23:01:56.771Z,5.30
2023-02-15T23:04:29.009Z,5.20
2023-02-15T23:06:58.152Z,5.20
2023-02-15T23:09:25.008Z,5.10
2023-02-15T23:11:52.851Z,5.30
2023-02-15T23:14:19.445Z,5.30
2023-02-15T23:16:49.065Z,5.20
2023-02-15T23:19:15.799Z,5.20
2023-02-15T23:21:42.698Z,5.10
2023-02-15T23:24:28.691Z,5.20
2023-02-15T23:27:15.923Z,5.20
2023-02-15T23:29:42.607Z,5.30
2023-02-15T23:32:14.997Z,5.30
2023-02-15T23:34:43.214Z,5.20
2023-02-15T23:37:14.295Z,5.20
2023-02-15T23:39:59.905Z,5.10
2023-02-15T23:42:29.893Z,5.00
2023-02-15T23:44:57.275Z,5.00
2023-02-15T23:48:09.164Z,4.90
2023-02-15T23:50:37.329Z,4.80
2023-02-15T23:53:04.115Z,4.70
2023-02-15T23:55:39.113Z,4.60
2023-02-15T23:58:10.806Z,4.60
